Time;durP1;ratioP1;P1;durP2;ratioP2;P2;SDS_P1;SDS_P2;PMS_P1;PMS_P2;Temp;Humidity;BMP_temperature;BMP_pressure;BME280_temperature;BME280_humidity;BME280_pressure;Samples;Min_cycle;Max_cycle;Signal;HPM_P1;HPM_P2
2023/01/21 00:00:32;;;;;;;;;;;-6.70;99.90;;;;;;5127957;28;19983;-69
2023/01/21 00:02:58;;;;;;;;;;;-6.80;99.90;;;;;;5127354;28;20182;-69
2023/01/21 00:05:25;;;;;;;;;;;-6.80;99.90;;;;;;5127657;28;19987;-69
2023/01/21 00:07:52;;;;;;;;;;;-6.80;99.90;;;;;;5126953;28;19955;-69
2023/01/21 00:10:20;;;;;;;;;;;-6.80;99.90;;;;;;5127519;28;20168;-69
2023/01/21 00:12:46;;;;;;;;;;;-6.80;99.90;;;;;;5127612;28;19982;-69
2023/01/21 00:15:13;;;;;;;;;;;-6.80;99.90;;;;;;5127464;28;19987;-69
2023/01/21 00:17:42;;;;;;;;;;;-6.70;99.90;;;;;;5126723;28;20263;-69
2023/01/21 00:20:10;;;;;;;;;;;-6.70;99.90;;;;;;5127337;28;19919;-69
2023/01/21 00:22:36;;;;;;;;;;;-6.70;99.90;;;;;;5127442;28;20255;-69
2023/01/21 00:25:04;;;;;;;;;;;-6.80;99.90;;;;;;5127239;28;19983;-69
2023/01/21 00:27:32;;;;;;;;;;;-6.80;99.90;;;;;;5126640;28;19926;-69
2023/01/21 00:30:05;;;;;;;;;;;-6.70;99.90;;;;;;5124920;28;20220;-69
2023/01/21 00:32:32;;;;;;;;;;;-6.60;99.90;;;;;;5127103;28;19977;-69
2023/01/21 00:34:59;;;;;;;;;;;-6.60;99.90;;;;;;5126983;28;19999;-69
2023/01/21 00:37:25;;;;;;;;;;;-6.60;99.90;;;;;;5126737;28;19962;-69
2023/01/21 00:39:52;;;;;;;;;;;-6.50;99.90;;;;;;5126951;28;20279;-69
2023/01/21 00:42:19;;;;;;;;;;;-6.40;99.90;;;;;;5126940;28;19954;-69
2023/01/21 00:44:46;;;;;;;;;;;-6.40;99.90;;;;;;5126622;28;19919;-69
2023/01/21 00:47:13;;;;;;;;;;;-6.30;99.90;;;;;;5111274;28;19927;-69
2023/01/21 00:49:40;;;;;;;;;;;-6.30;99.90;;;;;;5127099;28;20012;-69
2023/01/21 00:52:06;;;;;;;;;;;-6.30;99.90;;;;;;5126771;28;20223;-69
2023/01/21 00:54:33;;;;;;;;;;;-6.30;99.90;;;;;;5126571;28;19978;-69
2023/01/21 00:57:00;;;;;;;;;;;-6.30;99.90;;;;;;5126242;28;19926;-69
2023/01/21 00:59:27;;;;;;;;;;;-6.20;99.90;;;;;;5125596;28;19991;-69
2023/01/21 01:01:55;;;;;;;;;;;-6.20;99.90;;;;;;5126344;28;20212;-69
2023/01/21 01:04:21;;;;;;;;;;;-6.10;99.90;;;;;;5125800;28;19987;-69
2023/01/21 01:06:48;;;;;;;;;;;-6.10;99.90;;;;;;5125829;28;19926;-69
2023/01/21 01:09:15;;;;;;;;;;;-6.00;99.90;;;;;;5126695;28;19982;-69
2023/01/21 01:11:41;;;;;;;;;;;-5.90;99.90;;;;;;5126650;28;19955;-69
2023/01/21 01:14:08;;;;;;;;;;;-5.90;99.90;;;;;;5126284;28;20182;-69
2023/01/21 01:16:35;;;;;;;;;;;-5.90;99.90;;;;;;5125593;28;19920;-70
2023/01/21 01:19:02;;;;;;;;;;;-5.90;99.90;;;;;;5126297;28;20268;-69
2023/01/21 01:21:29;;;;;;;;;;;-5.80;99.90;;;;;;5126334;28;20125;-68
2023/01/21 01:23:59;;;;;;;;;;;-5.80;99.90;;;;;;5125975;28;19920;-69
2023/01/21 01:26:26;;;;;;;;;;;-5.80;99.90;;;;;;5125126;28;19928;-69
2023/01/21 01:28:53;;;;;;;;;;;-5.80;99.90;;;;;;5122950;28;20255;-69
2023/01/21 01:31:20;;;;;;;;;;;-5.70;99.90;;;;;;5126221;28;19919;-69
2023/01/21 01:33:47;;;;;;;;;;;-5.70;99.90;;;;;;5126166;28;19920;-69
2023/01/21 01:36:16;;;;;;;;;;;-5.60;99.90;;;;;;5125044;28;19955;-68
2023/01/21 01:38:43;;;;;;;;;;;-5.60;99.90;;;;;;5125809;28;20261;-69
2023/01/21 01:41:13;;;;;;;;;;;-5.50;99.90;;;;;;5125731;28;19986;-69
2023/01/21 01:43:51;;;;;;;;;;;-5.40;99.90;;;;;;5125929;28;19919;-69
2023/01/21 01:46:17;;;;;;;;;;;-5.30;99.90;;;;;;5125050;28;19942;-70
2023/01/21 01:48:46;;;;;;;;;;;-5.30;99.90;;;;;;5125950;28;19990;-69
2023/01/21 01:51:13;;;;;;;;;;;-5.20;99.90;;;;;;5125845;28;19926;-69
2023/01/21 01:53:42;;;;;;;;;;;-5.20;99.90;;;;;;5125351;28;19920;-69
2023/01/21 01:56:19;;;;;;;;;;;-5.20;99.90;;;;;;5121586;28;19919;-69
2023/01/21 01:58:46;;;;;;;;;;;-5.20;99.90;;;;;;5125784;28;19920;-69
2023/01/21 02:01:13;;;;;;;;;;;-5.10;99.90;;;;;;5125707;28;19927;-69
2023/01/21 02:03:44;;;;;;;;;;;-5.10;99.90;;;;;;5125253;28;19919;-69
2023/01/21 02:06:11;;;;;;;;;;;-5.00;99.90;;;;;;5124468;28;19926;-69
2023/01/21 02:08:38;;;;;;;;;;;-5.00;99.90;;;;;;5107136;28;19920;-69
2023/01/21 02:11:10;;;;;;;;;;;-5.00;99.90;;;;;;5104541;28;19920;-69
2023/01/21 02:13:37;;;;;;;;;;;-4.90;99.90;;;;;;5106439;28;20111;-69
2023/01/21 02:16:10;;;;;;;;;;;-4.80;99.90;;;;;;5124686;28;19987;-69
2023/01/21 02:18:41;;;;;;;;;;;-4.70;99.90;;;;;;5124959;28;19920;-69
2023/01/21 02:21:17;;;;;;;;;;;-4.70;99.90;;;;;;5125260;28;19991;-69
2023/01/21 02:24:02;;;;;;;;;;;-4.70;99.90;;;;;;5125076;28;19926;-69
2023/01/21 02:26:41;;;;;;;;;;;-4.70;99.90;;;;;;5123634;28;19920;-69
2023/01/21 02:29:26;;;;;;;;;;;-4.60;99.90;;;;;;5125113;28;19926;-69
2023/01/21 02:32:00;;;;;;;;;;;-4.50;99.90;;;;;;5125028;28;19926;-69
2023/01/21 02:34:31;;;;;;;;;;;-4.50;99.90;;;;;;5125017;28;19926;-69
2023/01/21 02:37:02;;;;;;;;;;;-4.40;99.90;;;;;;5123988;28;19920;-69
2023/01/21 02:39:35;;;;;;;;;;;-4.40;99.90;;;;;;5124808;28;19926;-69
2023/01/21 02:42:06;;;;;;;;;;;-4.30;99.90;;;;;;5124945;28;19920;-68
2023/01/21 02:44:35;;;;;;;;;;;-4.20;99.90;;;;;;5124857;28;20146;-69
2023/01/21 02:47:04;;;;;;;;;;;-4.10;99.90;;;;;;5123772;28;20221;-69
2023/01/21 02:49:35;;;;;;;;;;;-4.10;99.90;;;;;;5124812;28;19920;-69
2023/01/21 02:52:01;;;;;;;;;;;-4.10;99.90;;;;;;5124794;28;19983;-69
2023/01/21 02:54:46;;;;;;;;;;;-4.00;99.90;;;;;;5124382;28;20000;-70
2023/01/21 02:57:14;;;;;;;;;;;-4.00;99.90;;;;;;5124115;28;19920;-69
2023/01/21 02:59:44;;;;;;;;;;;-3.90;99.90;;;;;;5124559;28;19982;-69
2023/01/21 03:02:12;;;;;;;;;;;-3.70;99.90;;;;;;5124624;28;20119;-69
2023/01/21 03:04:51;;;;;;;;;;;-3.70;99.90;;;;;;5124556;28;19920;-68
2023/01/21 03:07:21;;;;;;;;;;;-3.60;99.90;;;;;;5123801;28;19926;-69
2023/01/21 03:09:48;;;;;;;;;;;-3.40;99.90;;;;;;5124703;28;19919;-69
2023/01/21 03:12:23;;;;;;;;;;;-3.30;99.90;;;;;;5124039;28;19955;-69
2023/01/21 03:17:40;;;;;;;;;;;-3.20;99.90;;;;;;5123592;28;19922;-69
2023/01/21 03:20:10;;;;;;;;;;;-3.20;99.90;;;;;;5124158;28;20093;-69
2023/01/21 03:22:38;;;;;;;;;;;-3.10;99.90;;;;;;5124240;28;19920;-69
2023/01/21 03:25:06;;;;;;;;;;;-3.10;99.90;;;;;;5128449;28;19983;-69
2023/01/21 03:27:33;;;;;;;;;;;-3.10;99.90;;;;;;5128348;28;20211;-69
2023/01/21 03:30:02;;;;;;;;;;;-3.00;99.90;;;;;;5129406;28;19959;-69
2023/01/21 03:32:30;;;;;;;;;;;-3.00;99.90;;;;;;5128106;28;19991;-69
2023/01/21 03:34:57;;;;;;;;;;;-2.90;99.90;;;;;;5128395;28;19919;-69
2023/01/21 03:37:28;;;;;;;;;;;-2.90;99.90;;;;;;5127816;28;19987;-68
2023/01/21 03:39:59;;;;;;;;;;;-2.90;99.90;;;;;;5128044;28;19926;-69
2023/01/21 03:42:26;;;;;;;;;;;-2.90;99.90;;;;;;5128321;28;19926;-69
2023/01/21 03:44:53;;;;;;;;;;;-2.90;99.90;;;;;;5128269;28;19931;-69
2023/01/21 03:47:23;;;;;;;;;;;-2.80;99.90;;;;;;5127551;28;19986;-69
2023/01/21 03:49:52;;;;;;;;;;;-2.80;99.90;;;;;;5127925;28;19965;-69
2023/01/21 03:52:20;;;;;;;;;;;-2.80;99.90;;;;;;5127888;28;19947;-69
2023/01/21 03:54:48;;;;;;;;;;;-2.80;99.90;;;;;;5127968;28;20146;-69
2023/01/21 03:57:15;;;;;;;;;;;-2.80;99.90;;;;;;5127372;28;19923;-69
2023/01/21 03:59:42;;;;;;;;;;;-2.90;99.90;;;;;;5127759;28;19920;-69
2023/01/21 04:02:09;;;;;;;;;;;-2.90;99.90;;;;;;5127913;28;19920;-69
2023/01/21 04:04:36;;;;;;;;;;;-2.90;99.90;;;;;;5127853;28;19991;-70
2023/01/21 04:07:02;;;;;;;;;;;-2.90;99.90;;;;;;5127082;28;20168;-69
2023/01/21 04:09:29;;;;;;;;;;;-2.90;99.90;;;;;;5127743;28;19958;-69
2023/01/21 04:11:59;;;;;;;;;;;-2.90;99.90;;;;;;5127712;28;19920;-69
2023/01/21 04:14:25;;;;;;;;;;;-3.00;99.90;;;;;;5127674;28;20324;-69
2023/01/21 04:16:52;;;;;;;;;;;-3.00;99.90;;;;;;5126718;28;19987;-69
2023/01/21 04:19:19;;;;;;;;;;;-3.00;99.90;;;;;;5127672;28;19947;-69
2023/01/21 04:21:45;;;;;;;;;;;-3.00;99.90;;;;;;5127640;28;19986;-69
2023/01/21 04:24:12;;;;;;;;;;;-3.00;99.90;;;;;;5127027;28;19982;-69
2023/01/21 04:26:38;;;;;;;;;;;-3.00;99.90;;;;;;5126352;28;20231;-69
2023/01/21 04:29:06;;;;;;;;;;;-3.00;99.90;;;;;;5127494;28;19955;-69
2023/01/21 04:31:33;;;;;;;;;;;-3.00;99.90;;;;;;5127369;28;19941;-69
2023/01/21 04:34:00;;;;;;;;;;;-3.00;99.90;;;;;;5126928;28;19926;-69
2023/01/21 04:36:26;;;;;;;;;;;-3.10;99.90;;;;;;5125725;28;20130;-69
2023/01/21 04:38:53;;;;;;;;;;;-3.10;99.90;;;;;;5127181;28;19983;-69
2023/01/21 04:41:20;;;;;;;;;;;-3.10;99.90;;;;;;5127121;28;19984;-69
2023/01/21 04:43:46;;;;;;;;;;;-3.00;99.90;;;;;;5127122;28;19921;-69
2023/01/21 04:46:14;;;;;;;;;;;-3.00;99.90;;;;;;5126082;28;20215;-69
2023/01/21 04:48:41;;;;;;;;;;;-3.10;99.90;;;;;;5126644;28;20107;-69
2023/01/21 04:51:07;;;;;;;;;;;-3.10;99.90;;;;;;5126987;28;19982;-69
2023/01/21 04:53:34;;;;;;;;;;;-3.10;99.90;;;;;;5126587;28;20230;-69
2023/01/21 04:56:00;;;;;;;;;;;-3.10;99.90;;;;;;5126365;28;19983;-69
2023/01/21 04:58:27;;;;;;;;;;;-3.00;99.90;;;;;;5126532;28;19988;-69
2023/01/21 05:00:54;;;;;;;;;;;-3.00;99.90;;;;;;5126860;28;19994;-69
2023/01/21 05:03:22;;;;;;;;;;;-3.10;99.90;;;;;;5126723;28;19983;-69
2023/01/21 05:05:48;;;;;;;;;;;-3.10;99.90;;;;;;5126360;28;19919;-69
2023/01/21 05:08:15;;;;;;;;;;;-3.00;99.90;;;;;;5125888;28;19926;-69
2023/01/21 05:10:42;;;;;;;;;;;-3.00;99.90;;;;;;5126409;28;20226;-69
2023/01/21 05:13:08;;;;;;;;;;;-3.00;99.90;;;;;;5126570;28;19991;-69
2023/01/21 05:15:35;;;;;;;;;;;-3.00;99.90;;;;;;5126300;28;19926;-69
2023/01/21 05:18:01;;;;;;;;;;;-3.00;99.90;;;;;;5125643;28;20266;-69
2023/01/21 05:20:29;;;;;;;;;;;-3.00;99.90;;;;;;5126490;28;19951;-69
2023/01/21 05:22:56;;;;;;;;;;;-2.90;99.90;;;;;;5126167;28;19919;-69
2023/01/21 05:25:23;;;;;;;;;;;-2.90;99.90;;;;;;5126075;28;19991;-69
2023/01/21 05:27:53;;;;;;;;;;;-2.90;99.90;;;;;;5125407;28;20291;-70
2023/01/21 05:30:20;;;;;;;;;;;-2.90;99.90;;;;;;5126299;28;19926;-69
2023/01/21 05:32:49;;;;;;;;;;;-2.90;99.90;;;;;;5125935;28;19920;-69
2023/01/21 05:35:17;;;;;;;;;;;-2.90;99.90;;;;;;5126001;28;19954;-69
2023/01/21 05:37:46;;;;;;;;;;;-2.80;99.90;;;;;;5125488;28;19978;-70
2023/01/21 05:40:13;;;;;;;;;;;-2.80;99.90;;;;;;5125934;28;19982;-70
2023/01/21 05:42:40;;;;;;;;;;;-2.80;99.90;;;;;;5125931;28;19982;-69
2023/01/21 05:45:07;;;;;;;;;;;-2.80;99.90;;;;;;5125893;28;20246;-69
2023/01/21 05:47:34;;;;;;;;;;;-2.80;99.90;;;;;;5124586;28;19983;-69
2023/01/21 05:50:00;;;;;;;;;;;-2.80;99.90;;;;;;5125722;28;19978;-69
2023/01/21 05:52:27;;;;;;;;;;;-2.80;99.90;;;;;;5125460;28;20227;-69
2023/01/21 05:54:55;;;;;;;;;;;-2.80;99.90;;;;;;5125736;28;19926;-69
2023/01/21 05:57:21;;;;;;;;;;;-2.80;99.90;;;;;;5125088;28;19919;-69
2023/01/21 05:59:48;;;;;;;;;;;-2.70;99.90;;;;;;5125354;28;19962;-69
2023/01/21 06:02:15;;;;;;;;;;;-2.70;99.90;;;;;;5125545;28;19983;-69
2023/01/21 06:04:41;;;;;;;;;;;-2.70;99.90;;;;;;5125458;28;20169;-69
2023/01/21 06:07:08;;;;;;;;;;;-2.70;99.90;;;;;;5124582;28;19994;-69
2023/01/21 06:09:34;;;;;;;;;;;-2.70;99.90;;;;;;5125302;28;20176;-69
2023/01/21 06:12:02;;;;;;;;;;;-2.60;99.90;;;;;;5125167;28;19927;-69
2023/01/21 06:14:29;;;;;;;;;;;-2.60;99.90;;;;;;5125068;28;20212;-69
2023/01/21 06:16:56;;;;;;;;;;;-2.60;99.90;;;;;;5124662;28;19992;-69
2023/01/21 06:19:22;;;;;;;;;;;-2.60;99.90;;;;;;5125308;28;19982;-69
2023/01/21 06:21:49;;;;;;;;;;;-2.60;99.90;;;;;;5125031;28;20339;-69
2023/01/21 06:24:16;;;;;;;;;;;-2.60;99.90;;;;;;5124835;28;19926;-69
2023/01/21 06:26:42;;;;;;;;;;;-2.60;99.90;;;;;;5124412;28;19928;-69
2023/01/21 06:29:12;;;;;;;;;;;-2.60;99.90;;;;;;5122339;28;19919;-69
2023/01/21 06:31:39;;;;;;;;;;;-2.60;99.90;;;;;;5125173;28;19986;-69
2023/01/21 06:34:06;;;;;;;;;;;-2.60;99.90;;;;;;5124807;28;19957;-69
2023/01/21 06:36:33;;;;;;;;;;;-2.60;99.90;;;;;;5124288;28;19951;-69
2023/01/21 06:38:59;;;;;;;;;;;-2.50;99.90;;;;;;5124981;28;19928;-69
2023/01/21 06:41:26;;;;;;;;;;;-2.50;99.90;;;;;;5124589;28;20168;-70
2023/01/21 06:43:53;;;;;;;;;;;-2.50;99.90;;;;;;5124828;28;19991;-69
2023/01/21 06:46:20;;;;;;;;;;;-2.50;99.90;;;;;;5123919;28;19920;-69
2023/01/21 06:48:47;;;;;;;;;;;-2.50;99.90;;;;;;5124119;28;19926;-68
2023/01/21 06:51:14;;;;;;;;;;;-2.50;99.90;;;;;;5124481;28;19988;-69
2023/01/21 06:53:40;;;;;;;;;;;-2.50;99.90;;;;;;5104228;28;19951;-68
2023/01/21 06:56:07;;;;;;;;;;;-2.50;99.90;;;;;;5103398;28;19990;-68
2023/01/21 06:58:33;;;;;;;;;;;-2.50;99.90;;;;;;5103148;28;19952;-68
2023/01/21 07:01:00;;;;;;;;;;;-2.40;99.90;;;;;;5122144;28;19979;-69
2023/01/21 07:03:29;;;;;;;;;;;-2.40;99.90;;;;;;5124513;28;19983;-68
2023/01/21 07:05:55;;;;;;;;;;;-2.40;99.90;;;;;;5124069;28;20141;-69
2023/01/21 07:08:22;;;;;;;;;;;-2.40;99.90;;;;;;5123722;28;19994;-68
2023/01/21 07:10:48;;;;;;;;;;;-2.40;99.90;;;;;;5124561;28;19996;-68
2023/01/21 07:13:15;;;;;;;;;;;-2.50;99.90;;;;;;5124319;28;20171;-69
2023/01/21 07:15:42;;;;;;;;;;;-2.50;99.90;;;;;;5123860;28;19920;-71
2023/01/21 07:18:08;;;;;;;;;;;-2.50;99.90;;;;;;5124093;28;19991;-69
2023/01/21 07:20:37;;;;;;;;;;;-2.50;99.90;;;;;;5124495;28;20195;-69
2023/01/21 07:23:04;;;;;;;;;;;-2.50;99.90;;;;;;5123996;28;19920;-69
2023/01/21 07:25:31;;;;;;;;;;;-2.50;99.90;;;;;;5124265;28;19926;-69
2023/01/21 07:27:57;;;;;;;;;;;-2.50;99.90;;;;;;5123144;28;19920;-69
2023/01/21 07:30:26;;;;;;;;;;;-2.50;99.90;;;;;;5121658;28;19987;-69
2023/01/21 07:32:53;;;;;;;;;;;-2.50;99.90;;;;;;5124352;28;19924;-69
2023/01/21 07:35:19;;;;;;;;;;;-2.50;99.90;;;;;;5124131;28;19926;-69
2023/01/21 07:37:47;;;;;;;;;;;-2.50;99.90;;;;;;5123519;28;20223;-69
2023/01/21 07:40:14;;;;;;;;;;;-2.50;99.90;;;;;;5124102;28;19926;-69
2023/01/21 07:42:41;;;;;;;;;;;-2.50;99.90;;;;;;5124236;28;19987;-69
2023/01/21 07:45:08;;;;;;;;;;;-2.50;99.90;;;;;;5123892;28;19947;-69
2023/01/21 07:47:34;;;;;;;;;;;-2.50;99.90;;;;;;5123171;28;20203;-69
2023/01/21 07:50:03;;;;;;;;;;;-2.50;99.90;;;;;;5123766;28;19950;-68
2023/01/21 07:52:31;;;;;;;;;;;-2.50;99.90;;;;;;5123815;28;20115;-69
2023/01/21 07:55:00;;;;;;;;;;;-2.40;99.90;;;;;;5103595;28;19926;-68
2023/01/21 07:57:27;;;;;;;;;;;-2.40;99.90;;;;;;5103107;28;19920;-69
2023/01/21 07:59:54;;;;;;;;;;;-2.40;99.90;;;;;;5103736;28;20097;-68
2023/01/21 08:02:20;;;;;;;;;;;-2.50;99.90;;;;;;5103140;28;19927;-68
2023/01/21 08:04:47;;;;;;;;;;;-2.50;99.90;;;;;;5103507;28;19999;-68
2023/01/21 08:07:13;;;;;;;;;;;-2.50;99.90;;;;;;5103101;28;19979;-68
2023/01/21 08:09:40;;;;;;;;;;;-2.40;99.90;;;;;;5105284;28;19984;-69
2023/01/21 08:12:08;;;;;;;;;;;-2.40;99.90;;;;;;5107126;28;20254;-68
2023/01/21 08:14:37;;;;;;;;;;;-2.30;99.90;;;;;;5107203;28;19920;-69
2023/01/21 08:17:03;;;;;;;;;;;-2.30;99.90;;;;;;5106305;28;19920;-68
2023/01/21 08:19:30;;;;;;;;;;;-2.30;99.90;;;;;;5106998;28;20305;-68
2023/01/21 08:21:57;;;;;;;;;;;-2.30;99.90;;;;;;5106868;28;19959;-69
2023/01/21 08:24:23;;;;;;;;;;;-2.30;99.90;;;;;;5107059;28;19983;-68
2023/01/21 08:26:50;;;;;;;;;;;-2.30;99.90;;;;;;5126736;28;19986;-68
2023/01/21 08:29:18;;;;;;;;;;;-2.30;99.90;;;;;;5127410;28;19951;-68
2023/01/21 08:31:44;;;;;;;;;;;-2.20;99.90;;;;;;5127087;28;19927;-68
2023/01/21 08:34:11;;;;;;;;;;;-2.20;99.90;;;;;;5126819;28;20279;-69
2023/01/21 08:36:38;;;;;;;;;;;-2.30;99.90;;;;;;5126217;28;19983;-68
2023/01/21 08:39:05;;;;;;;;;;;-2.20;99.90;;;;;;5126825;28;19926;-68
2023/01/21 08:41:32;;;;;;;;;;;-2.20;99.90;;;;;;5127082;28;19919;-68
2023/01/21 08:43:59;;;;;;;;;;;-2.10;99.90;;;;;;5127087;28;19996;-69
2023/01/21 08:46:27;;;;;;;;;;;-2.10;99.90;;;;;;5110490;28;19959;-68
2023/01/21 08:48:53;;;;;;;;;;;-2.10;99.90;;;;;;5106273;28;19926;-68
2023/01/21 08:51:20;;;;;;;;;;;-2.00;99.90;;;;;;5106489;28;19956;-68
2023/01/21 08:53:48;;;;;;;;;;;-2.10;99.90;;;;;;5106581;28;20153;-68
2023/01/21 08:56:14;;;;;;;;;;;-2.10;99.90;;;;;;5107484;28;19924;-68
2023/01/21 08:58:41;;;;;;;;;;;-2.00;99.90;;;;;;5126607;28;19982;-69
2023/01/21 09:01:08;;;;;;;;;;;-1.90;99.90;;;;;;5126606;28;19919;-68
2023/01/21 09:03:36;;;;;;;;;;;-1.90;99.90;;;;;;5126279;28;19984;-68
2023/01/21 09:06:02;;;;;;;;;;;-1.80;99.90;;;;;;5105443;28;19995;-68
2023/01/21 09:08:29;;;;;;;;;;;-1.80;99.90;;;;;;5105552;28;19926;-68
2023/01/21 09:11:04;;;;;;;;;;;-1.80;99.90;;;;;;5113282;28;19979;-68
2023/01/21 09:13:31;;;;;;;;;;;-1.80;99.90;;;;;;5105696;28;19987;-68
2023/01/21 09:15:58;;;;;;;;;;;-1.80;99.90;;;;;;5113475;28;20002;-68
2023/01/21 09:18:25;;;;;;;;;;;-1.80;99.90;;;;;;5114150;28;19920;-68
2023/01/21 09:20:53;;;;;;;;;;;-1.70;99.90;;;;;;5106908;28;19920;-69
2023/01/21 09:23:26;;;;;;;;;;;-1.70;99.90;;;;;;5126049;28;19926;-68
2023/01/21 09:25:53;;;;;;;;;;;-1.60;99.90;;;;;;5126051;28;19920;-68
2023/01/21 09:28:20;;;;;;;;;;;-1.70;99.90;;;;;;5125690;28;19926;-68
2023/01/21 09:30:47;;;;;;;;;;;-1.70;99.90;;;;;;5125762;28;20200;-68
2023/01/21 09:33:14;;;;;;;;;;;-1.70;99.90;;;;;;5126014;28;20190;-68
2023/01/21 09:35:41;;;;;;;;;;;-1.60;99.90;;;;;;5125825;28;19983;-68
2023/01/21 09:38:11;;;;;;;;;;;-1.60;99.90;;;;;;5125035;28;19982;-68
2023/01/21 09:40:37;;;;;;;;;;;-1.60;99.90;;;;;;5125664;28;19927;-68
2023/01/21 09:43:11;;;;;;;;;;;-1.50;99.90;;;;;;5125807;28;19979;-67
2023/01/21 09:45:38;;;;;;;;;;;-1.60;99.90;;;;;;5125789;28;19987;-69
2023/01/21 09:48:06;;;;;;;;;;;-1.60;99.90;;;;;;5125398;28;19920;-69
2023/01/21 09:50:34;;;;;;;;;;;-1.60;99.90;;;;;;5125699;28;20085;-70
2023/01/21 09:53:04;;;;;;;;;;;-1.50;99.90;;;;;;5125390;28;19927;-70
2023/01/21 09:55:35;;;;;;;;;;;-1.40;99.90;;;;;;5125630;28;20106;-69
2023/01/21 09:58:07;;;;;;;;;;;-1.40;99.90;;;;;;5124819;28;19955;-69
2023/01/21 10:00:39;;;;;;;;;;;-1.40;99.90;;;;;;5123028;28;19926;-69
2023/01/21 10:03:12;;;;;;;;;;;-1.30;99.90;;;;;;5125390;28;19983;-70
2023/01/21 10:05:44;;;;;;;;;;;-1.30;99.90;;;;;;5124492;28;19986;-69
2023/01/21 10:08:15;;;;;;;;;;;-1.30;99.90;;;;;;5119192;28;19920;-69
2023/01/21 10:10:46;;;;;;;;;;;-1.30;99.90;;;;;;5120964;28;19919;-71
2023/01/21 10:13:25;;;;;;;;;;;-1.30;99.90;;;;;;5125091;28;19926;-70
2023/01/21 10:15:59;;;;;;;;;;;-1.30;99.90;;;;;;5124888;28;19999;-70
2023/01/21 10:18:27;;;;;;;;;;;-1.40;99.90;;;;;;5125077;28;19919;-70
2023/01/21 10:20:55;;;;;;;;;;;-1.30;99.90;;;;;;5125031;28;19920;-70
2023/01/21 10:23:24;;;;;;;;;;;-1.30;99.90;;;;;;5124773;28;19920;-69
2023/01/21 10:25:52;;;;;;;;;;;-1.30;99.90;;;;;;5124450;28;20250;-69
2023/01/21 10:28:21;;;;;;;;;;;-1.30;99.90;;;;;;5124306;28;20227;-68
2023/01/21 10:30:50;;;;;;;;;;;-1.40;99.90;;;;;;5124781;28;20211;-69
2023/01/21 10:33:18;;;;;;;;;;;-1.40;99.90;;;;;;5124669;28;20092;-66
2023/01/21 10:35:54;;;;;;;;;;;-1.30;99.90;;;;;;5111175;28;19920;-67
2023/01/21 10:38:26;;;;;;;;;;;-1.30;99.90;;;;;;5103935;28;19928;-67
2023/01/21 10:40:58;;;;;;;;;;;-1.30;99.90;;;;;;5122941;28;20208;-66
2023/01/21 10:43:30;;;;;;;;;;;-1.30;99.90;;;;;;5124662;28;19956;-66
2023/01/21 10:45:59;;;;;;;;;;;-1.30;99.90;;;;;;5124321;28;19934;-66
2023/01/21 10:48:31;;;;;;;;;;;-1.20;99.90;;;;;;5107160;28;19927;-66
2023/01/21 10:51:00;;;;;;;;;;;-1.30;99.90;;;;;;5104249;28;19955;-68
2023/01/21 10:53:30;;;;;;;;;;;-1.40;99.90;;;;;;5103749;28;19926;-69
2023/01/21 10:56:17;;;;;;;;;;;-1.30;99.90;;;;;;5111224;28;19919;-68
2023/01/21 10:58:46;;;;;;;;;;;-1.30;99.90;;;;;;5117102;28;19941;-69
2023/01/21 11:01:16;;;;;;;;;;;-1.30;99.90;;;;;;5124306;28;19983;-68
2023/01/21 11:03:44;;;;;;;;;;;-1.30;99.90;;;;;;5104206;28;19920;-68
2023/01/21 11:06:12;;;;;;;;;;;-1.30;99.90;;;;;;5103169;28;19927;-68
2023/01/21 11:08:38;;;;;;;;;;;-1.30;99.90;;;;;;5103872;28;20200;-67
2023/01/21 11:11:06;;;;;;;;;;;-1.30;99.90;;;;;;5104504;28;19959;-69
2023/01/21 11:13:34;;;;;;;;;;;-1.20;99.90;;;;;;5124085;28;19983;-68
2023/01/21 11:16:02;;;;;;;;;;;-1.20;99.90;;;;;;5123512;28;19926;-68
2023/01/21 11:18:31;;;;;;;;;;;-1.10;99.90;;;;;;5112984;28;19923;-68
2023/01/21 11:20:59;;;;;;;;;;;-1.00;99.90;;;;;;5123754;28;19924;-68
2023/01/21 11:23:27;;;;;;;;;;;-0.90;99.90;;;;;;5124033;28;19965;-67
2023/01/21 11:26:00;;;;;;;;;;;-0.90;99.90;;;;;;5123915;28;20196;-68
2023/01/21 11:28:28;;;;;;;;;;;-0.80;99.90;;;;;;5123985;28;19920;-68
2023/01/21 11:31:04;;;;;;;;;;;-0.80;99.90;;;;;;5124396;28;19919;-68
2023/01/21 11:33:31;;;;;;;;;;;-0.80;99.90;;;;;;5107302;28;20116;-69
2023/01/21 11:36:08;;;;;;;;;;;-0.80;99.90;;;;;;5103140;28;19928;-70
2023/01/21 11:38:35;;;;;;;;;;;-0.90;99.90;;;;;;5123649;28;19920;-68
2023/01/21 11:41:03;;;;;;;;;;;-0.90;99.90;;;;;;5119297;28;20365;-68
2023/01/21 11:43:35;;;;;;;;;;;-1.00;99.90;;;;;;5103449;28;19979;-68
2023/01/21 11:46:20;;;;;;;;;;;-0.90;99.90;;;;;;5107369;28;20506;-68
2023/01/21 11:48:47;;;;;;;;;;;-0.90;99.90;;;;;;5107634;28;20223;-68
2023/01/21 11:51:13;;;;;;;;;;;-0.90;99.90;;;;;;5107279;28;19991;-68
2023/01/21 11:53:40;;;;;;;;;;;-1.10;99.90;;;;;;5107606;28;19955;-68
2023/01/21 11:56:07;;;;;;;;;;;-1.10;99.90;;;;;;5106459;28;19962;-69
2023/01/21 11:58:35;;;;;;;;;;;-1.10;99.90;;;;;;5125955;28;19979;-69
2023/01/21 12:01:03;;;;;;;;;;;-1.10;99.90;;;;;;5128078;28;19955;-68
2023/01/21 12:03:34;;;;;;;;;;;-1.20;99.90;;;;;;5125544;28;19926;-68
2023/01/21 12:06:01;;;;;;;;;;;-1.10;99.90;;;;;;5114715;28;20241;-69
2023/01/21 12:08:29;;;;;;;;;;;-1.10;99.90;;;;;;5127792;28;19995;-68
2023/01/21 12:10:57;;;;;;;;;;;-1.10;99.90;;;;;;5127435;28;19994;-68
2023/01/21 12:13:29;;;;;;;;;;;-1.10;99.90;;;;;;5120256;28;20255;-69
2023/01/21 12:16:29;;;;;;;;;;;-1.10;99.90;;;;;;5126961;28;20164;-68
2023/01/21 12:19:17;;;;;;;;;;;-1.10;99.90;;;;;;5107260;28;19995;-69
2023/01/21 12:21:54;;;;;;;;;;;-1.10;99.90;;;;;;5124996;28;19962;-68
2023/01/21 12:24:24;;;;;;;;;;;-1.10;99.90;;;;;;5112468;28;19927;-68
2023/01/21 12:26:55;;;;;;;;;;;-1.10;99.90;;;;;;5106386;28;19986;-71
2023/01/21 12:29:33;;;;;;;;;;;-1.10;99.90;;;;;;5117344;28;19920;-69
2023/01/21 12:32:03;;;;;;;;;;;-1.10;99.90;;;;;;5127086;28;20167;-67
2023/01/21 12:34:31;;;;;;;;;;;-1.00;99.90;;;;;;5127268;28;19951;-68
2023/01/21 12:37:01;;;;;;;;;;;-1.00;99.90;;;;;;5126557;28;19926;-68
2023/01/21 12:39:28;;;;;;;;;;;-0.90;99.90;;;;;;5127278;28;19935;-69
2023/01/21 12:42:04;;;;;;;;;;;-0.90;99.90;;;;;;5125597;28;19926;-68
2023/01/21 12:44:34;;;;;;;;;;;-0.90;99.90;;;;;;5127176;28;19982;-68
2023/01/21 12:47:03;;;;;;;;;;;-0.90;99.90;;;;;;5126392;28;19979;-68
2023/01/21 12:49:35;;;;;;;;;;;-0.90;99.90;;;;;;5127111;28;19983;-68
2023/01/21 12:52:04;;;;;;;;;;;-0.90;99.90;;;;;;5126832;28;20254;-69
2023/01/21 12:54:36;;;;;;;;;;;-0.90;99.90;;;;;;5126717;28;20258;-69
2023/01/21 12:57:06;;;;;;;;;;;-1.00;99.90;;;;;;5124786;28;19955;-68
2023/01/21 12:59:35;;;;;;;;;;;-1.00;99.90;;;;;;5126876;28;19926;-69
2023/01/21 13:02:05;;;;;;;;;;;-1.00;99.90;;;;;;5126847;28;19926;-68
2023/01/21 13:04:42;;;;;;;;;;;-1.00;99.90;;;;;;5126858;28;19920;-68
2023/01/21 13:07:14;;;;;;;;;;;-1.10;99.90;;;;;;5126052;28;19920;-68
2023/01/21 13:09:43;;;;;;;;;;;-1.20;99.90;;;;;;5126412;28;20179;-69
2023/01/21 13:12:12;;;;;;;;;;;-1.20;99.90;;;;;;5126648;28;19920;-68
2023/01/21 13:14:41;;;;;;;;;;;-1.20;99.90;;;;;;5126087;28;19927;-68
2023/01/21 13:17:13;;;;;;;;;;;-1.20;99.90;;;;;;5125960;28;20179;-68
2023/01/21 13:19:39;;;;;;;;;;;-1.20;99.90;;;;;;5126386;28;19919;-69
2023/01/21 13:22:09;;;;;;;;;;;-1.20;99.90;;;;;;5125873;28;20115;-68
2023/01/21 13:24:55;;;;;;;;;;;-1.20;99.90;;;;;;5125906;28;19982;-68
2023/01/21 13:27:23;;;;;;;;;;;-1.30;99.90;;;;;;5125587;28;19987;-67
2023/01/21 13:29:57;;;;;;;;;;;-1.30;99.90;;;;;;5126137;28;20159;-67
2023/01/21 13:32:31;;;;;;;;;;;-1.30;99.90;;;;;;5126026;28;19959;-68
2023/01/21 13:35:05;;;;;;;;;;;-1.30;99.90;;;;;;5125519;28;20330;-67
2023/01/21 13:37:36;;;;;;;;;;;-1.30;99.90;;;;;;5125175;28;20211;-67
2023/01/21 13:40:18;;;;;;;;;;;-1.30;99.90;;;;;;5126097;28;19962;-67
2023/01/21 13:42:50;;;;;;;;;;;-1.40;99.90;;;;;;5124435;28;19991;-67
2023/01/21 13:45:26;;;;;;;;;;;-1.40;99.90;;;;;;5125889;28;20111;-67
2023/01/21 13:48:11;;;;;;;;;;;-1.40;99.90;;;;;;5125357;28;19926;-68
2023/01/21 13:50:45;;;;;;;;;;;-1.30;99.90;;;;;;5112151;28;19926;-67
2023/01/21 13:53:30;;;;;;;;;;;-1.40;99.90;;;;;;5125476;28;20207;-67
2023/01/21 13:56:05;;;;;;;;;;;-1.30;99.90;;;;;;5124992;28;20127;-68
2023/01/21 13:58:36;;;;;;;;;;;-1.30;99.90;;;;;;5125706;28;19919;-67
2023/01/21 14:01:05;;;;;;;;;;;-1.30;99.90;;;;;;5125907;28;19983;-67
2023/01/21 14:03:38;;;;;;;;;;;-1.20;99.90;;;;;;5125626;28;19970;-67
2023/01/21 14:06:07;;;;;;;;;;;-1.20;99.90;;;;;;5124820;28;19986;-70
2023/01/21 14:08:37;;;;;;;;;;;-1.30;99.90;;;;;;5125292;28;20158;-68
2023/01/21 14:11:07;;;;;;;;;;;-1.30;99.90;;;;;;5125101;28;20230;-68
2023/01/21 14:13:52;;;;;;;;;;;-1.30;99.90;;;;;;5123970;28;19983;-67
2023/01/21 14:16:27;;;;;;;;;;;-1.30;99.90;;;;;;5123908;28;19926;-68
2023/01/21 14:19:02;;;;;;;;;;;-1.40;99.90;;;;;;5125009;28;19950;-68
2023/01/21 14:21:42;;;;;;;;;;;-1.40;99.90;;;;;;5124801;28;19955;-68
2023/01/21 14:24:13;;;;;;;;;;;-1.30;99.90;;;;;;5124397;28;20229;-68
2023/01/21 14:26:47;;;;;;;;;;;-1.30;99.90;;;;;;5123852;28;20215;-68
2023/01/21 14:29:18;;;;;;;;;;;-1.30;99.90;;;;;;5124557;28;19942;-68